createdAt,value
2023-08-24T00:02:12.032Z,9.48
2023-08-24T00:04:39.328Z,8.73
2023-08-24T00:07:06.782Z,8.98
2023-08-24T00:09:34.059Z,9.37
2023-08-24T00:12:01.534Z,9.50
2023-08-24T00:14:29.194Z,9.00
2023-08-24T00:16:56.545Z,8.48
2023-08-24T00:19:23.844Z,8.32
2023-08-24T00:21:51.242Z,8.90
2023-08-24T00:24:18.622Z,8.70
2023-08-24T00:26:46.038Z,8.48
2023-08-24T00:29:13.377Z,8.85
2023-08-24T00:31:40.840Z,9.32
2023-08-24T00:34:08.151Z,9.13
2023-08-24T00:36:35.849Z,9.20
2023-08-24T00:39:03.487Z,9.32
2023-08-24T00:41:31.237Z,9.90
2023-08-24T00:43:58.966Z,9.43
2023-08-24T00:46:28.299Z,9.07
2023-08-24T00:48:58.428Z,9.43
2023-08-24T00:51:25.891Z,9.88
2023-08-24T00:53:53.278Z,8.85
2023-08-24T00:56:25.789Z,9.10
2023-08-24T00:58:53.536Z,8.93
2023-08-24T01:01:21.135Z,8.15
2023-08-24T01:03:48.543Z,8.90
2023-08-24T01:06:15.874Z,9.00
2023-08-24T01:08:43.328Z,8.65
2023-08-24T01:11:16.690Z,8.10
2023-08-24T01:13:49.097Z,8.00
2023-08-24T01:16:22.554Z,8.43
2023-08-24T01:18:50.081Z,8.50
2023-08-24T01:21:18.135Z,9.18
2023-08-24T01:24:13.629Z,8.63
2023-08-24T01:26:41.308Z,8.63
2023-08-24T01:29:08.572Z,8.75
2023-08-24T01:31:36.042Z,8.30
2023-08-24T01:34:03.341Z,8.20
2023-08-24T01:36:31.777Z,8.30
2023-08-24T01:39:19.465Z,7.60
2023-08-24T01:41:47.125Z,8.25
2023-08-24T01:44:14.521Z,7.70
2023-08-24T01:46:41.901Z,8.07
2023-08-24T01:49:09.261Z,7.83
2023-08-24T01:51:36.652Z,7.32
2023-08-24T01:54:04.267Z,7.70
2023-08-24T01:56:31.599Z,6.80
2023-08-24T01:58:59.479Z,7.03
2023-08-24T02:01:27.004Z,7.23
2023-08-24T02:03:54.358Z,7.85
2023-08-24T02:06:21.739Z,7.68
2023-08-24T02:08:49.429Z,7.25
2023-08-24T02:11:17.006Z,7.22
2023-08-24T02:13:44.286Z,7.43
2023-08-24T02:16:12.737Z,7.35
2023-08-24T02:18:40.033Z,7.97
2023-08-24T02:21:12.975Z,7.05
2023-08-24T02:23:41.071Z,7.97
2023-08-24T02:26:08.738Z,8.07
2023-08-24T02:28:37.569Z,7.45
2023-08-24T02:31:05.212Z,7.40
2023-08-24T02:33:32.759Z,6.90
2023-08-24T02:36:00.219Z,7.50
2023-08-24T02:38:27.648Z,8.23
2023-08-24T02:41:04.963Z,7.40
2023-08-24T02:43:32.896Z,8.15
2023-08-24T02:46:08.589Z,8.20
2023-08-24T02:48:36.200Z,8.27
2023-08-24T02:51:04.767Z,7.80
2023-08-24T02:53:32.182Z,7.50
2023-08-24T02:55:59.672Z,8.02
2023-08-24T02:58:28.817Z,7.70
2023-08-24T03:00:56.588Z,7.38
2023-08-24T03:03:24.736Z,7.57
2023-08-24T03:05:58.814Z,7.45
2023-08-24T03:08:28.413Z,7.95
2023-08-24T03:10:55.929Z,7.63
2023-08-24T03:13:23.936Z,7.88
2023-08-24T03:15:53.368Z,7.37
2023-08-24T03:18:21.319Z,8.63
2023-08-24T03:20:49.415Z,8.13
2023-08-24T03:23:17.569Z,8.40
2023-08-24T03:25:45.320Z,8.02
2023-08-24T03:28:12.769Z,8.50
2023-08-24T03:30:46.629Z,8.73
2023-08-24T03:33:14.479Z,8.30
2023-08-24T03:35:41.950Z,8.25
2023-08-24T03:38:09.424Z,9.13
2023-08-24T03:40:36.741Z,7.90
2023-08-24T03:43:04.464Z,8.32
2023-08-24T03:45:31.992Z,8.60
2023-08-24T03:47:59.593Z,8.52
2023-08-24T03:50:27.667Z,8.70
2023-08-24T03:52:55.817Z,8.17
2023-08-24T03:55:24.223Z,8.80
2023-08-24T03:57:52.028Z,9.18
2023-08-24T04:00:19.685Z,8.60
2023-08-24T04:02:47.329Z,9.07
2023-08-24T04:05:22.230Z,8.90
2023-08-24T04:07:50.000Z,9.55
2023-08-24T04:10:17.413Z,8.90
2023-08-24T04:12:44.814Z,9.07
2023-08-24T04:15:12.362Z,9.40
2023-08-24T04:17:41.799Z,9.27
2023-08-24T04:20:11.646Z,9.30
2023-08-24T04:22:38.967Z,9.18
2023-08-24T04:25:07.403Z,9.10
2023-08-24T04:27:34.737Z,9.00
2023-08-24T04:30:02.112Z,9.40
2023-08-24T04:32:29.478Z,9.38
2023-08-24T04:34:57.014Z,8.60
2023-08-24T04:37:24.356Z,8.68
2023-08-24T04:39:51.637Z,8.52
2023-08-24T04:42:19.004Z,9.00
2023-08-24T04:44:46.389Z,9.20
2023-08-24T04:47:13.695Z,8.38
2023-08-24T04:49:41.064Z,9.10
2023-08-24T04:52:08.347Z,9.10
2023-08-24T04:54:35.779Z,8.60
2023-08-24T04:57:03.386Z,8.48
2023-08-24T04:59:30.703Z,8.20
2023-08-24T05:01:58.194Z,9.10
2023-08-24T05:04:25.804Z,9.18
2023-08-24T05:06:53.029Z,9.13
2023-08-24T05:09:20.462Z,9.50
2023-08-24T05:11:47.793Z,9.73
2023-08-24T05:14:15.354Z,9.00
2023-08-24T05:16:42.878Z,9.80
2023-08-24T05:19:10.356Z,9.20
2023-08-24T05:21:37.635Z,9.93
2023-08-24T05:24:05.525Z,9.30
2023-08-24T05:26:33.049Z,9.15
2023-08-24T05:29:00.372Z,10.00
2023-08-24T05:31:27.773Z,9.95
2023-08-24T05:33:55.153Z,9.60
2023-08-24T05:36:22.417Z,9.98
2023-08-24T05:41:20.357Z,9.60
2023-08-24T05:43:48.507Z,9.68
2023-08-24T05:46:16.076Z,8.77
2023-08-24T05:48:43.581Z,9.43
2023-08-24T05:51:13.581Z,9.95
2023-08-24T05:53:42.120Z,9.68
2023-08-24T05:56:10.095Z,9.57
2023-08-24T05:58:37.557Z,9.00
2023-08-24T06:01:04.880Z,8.88
2023-08-24T06:03:32.482Z,9.88
2023-08-24T06:06:04.889Z,9.43
2023-08-24T06:08:32.912Z,9.82
2023-08-24T06:11:23.663Z,8.57
2023-08-24T06:13:55.928Z,9.07
2023-08-24T06:16:24.219Z,8.98
2023-08-24T06:18:51.791Z,8.57
2023-08-24T06:21:19.699Z,7.78
2023-08-24T06:23:48.731Z,8.57
2023-08-24T06:26:16.470Z,8.27
2023-08-24T06:28:44.391Z,8.88
2023-08-24T06:31:12.197Z,8.27
2023-08-24T06:33:39.605Z,8.68
2023-08-24T06:36:09.187Z,8.57
2023-08-24T06:38:37.284Z,8.73
2023-08-24T06:41:05.016Z,8.85
2023-08-24T06:43:32.344Z,9.20
2023-08-24T06:46:00.079Z,8.85
2023-08-24T06:48:27.680Z,9.10
2023-08-24T06:50:55.339Z,8.63
2023-08-24T06:53:23.552Z,9.10
2023-08-24T06:55:58.134Z,8.15
2023-08-24T06:58:25.489Z,8.13
2023-08-24T07:00:52.872Z,7.80
2023-08-24T07:03:20.326Z,7.90
2023-08-24T07:05:47.725Z,8.00
2023-08-24T07:08:15.409Z,7.72
2023-08-24T07:10:43.746Z,7.65
2023-08-24T07:13:11.233Z,7.70
2023-08-24T07:15:38.707Z,8.57
2023-08-24T07:18:06.884Z,8.18
2023-08-24T07:20:34.530Z,7.78
2023-08-24T07:23:02.351Z,7.90
2023-08-24T07:25:29.636Z,7.65
2023-08-24T07:27:59.583Z,7.97
2023-08-24T07:30:33.877Z,8.10
2023-08-24T07:33:04.419Z,7.90
2023-08-24T07:35:32.299Z,8.07
2023-08-24T07:37:59.699Z,8.27
2023-08-24T07:40:27.516Z,7.70
2023-08-24T07:42:56.574Z,8.10
2023-08-24T07:45:26.872Z,8.38
2023-08-24T07:47:55.825Z,7.97
2023-08-24T07:50:24.124Z,7.90
2023-08-24T07:52:52.766Z,7.60
2023-08-24T07:55:21.402Z,7.82
2023-08-24T07:57:50.591Z,8.40
2023-08-24T08:00:18.430Z,7.78
2023-08-24T08:02:45.805Z,7.65
2023-08-24T08:05:13.869Z,7.70
2023-08-24T08:07:41.324Z,7.72
2023-08-24T08:10:09.074Z,7.72
2023-08-24T08:12:37.087Z,7.88
2023-08-24T08:15:05.226Z,8.23
2023-08-24T08:17:50.074Z,8.27
2023-08-24T08:20:17.773Z,7.32
2023-08-24T08:22:46.110Z,7.20
2023-08-24T08:25:16.268Z,7.05
2023-08-24T08:27:45.264Z,7.68
2023-08-24T08:30:13.407Z,7.30
2023-08-24T08:32:40.878Z,7.85
2023-08-24T08:35:09.611Z,7.65
2023-08-24T08:37:37.520Z,8.25
2023-08-24T08:40:10.711Z,7.85
2023-08-24T08:42:38.457Z,8.50
2023-08-24T08:45:09.470Z,7.35
2023-08-24T08:47:37.142Z,7.60
2023-08-24T08:50:04.943Z,7.32
2023-08-24T08:52:35.150Z,7.10
2023-08-24T08:55:07.521Z,7.70
2023-08-24T08:57:35.501Z,7.80
2023-08-24T09:00:03.712Z,7.68
2023-08-24T09:02:31.168Z,7.82
2023-08-24T09:04:58.870Z,8.10
2023-08-24T09:07:26.393Z,7.83
2023-08-24T09:09:53.856Z,8.15
2023-08-24T09:12:24.600Z,7.40
2023-08-24T09:14:55.934Z,7.30
2023-08-24T09:17:24.249Z,7.45
2023-08-24T09:19:53.858Z,7.53
2023-08-24T09:22:22.144Z,6.72
2023-08-24T09:24:51.122Z,6.75
2023-08-24T09:27:19.901Z,7.50
2023-08-24T09:29:54.007Z,7.75
2023-08-24T09:32:24.920Z,7.03
2023-08-24T09:34:53.026Z,6.90
2023-08-24T09:37:21.327Z,6.75
2023-08-24T09:39:49.517Z,7.63
2023-08-24T09:42:18.750Z,7.03
2023-08-24T09:44:49.527Z,7.00
2023-08-24T09:47:16.927Z,6.88
2023-08-24T09:49:44.337Z,6.80
2023-08-24T09:52:13.129Z,6.57
2023-08-24T09:54:40.460Z,6.22
2023-08-24T09:57:09.693Z,6.57
2023-08-24T09:59:37.060Z,7.20
2023-08-24T10:02:05.160Z,7.05
2023-08-24T10:04:34.950Z,7.07
2023-08-24T10:07:12.148Z,6.75
2023-08-24T10:09:45.779Z,6.33
2023-08-24T10:12:13.119Z,7.38
2023-08-24T10:14:48.564Z,7.82
2023-08-24T10:17:16.052Z,7.32
2023-08-24T10:19:43.855Z,6.32
2023-08-24T10:22:11.273Z,6.80
2023-08-24T10:24:38.566Z,7.10
2023-08-24T10:27:06.090Z,7.22
2023-08-24T10:29:33.440Z,6.97
2023-08-24T10:32:00.942Z,6.90
2023-08-24T10:34:28.272Z,6.90
2023-08-24T10:36:55.954Z,7.03
2023-08-24T10:39:30.392Z,7.18
2023-08-24T10:41:57.895Z,7.45
2023-08-24T10:44:39.089Z,6.90
2023-08-24T10:47:07.928Z,6.90
2023-08-24T10:49:35.283Z,6.68
2023-08-24T10:52:24.413Z,6.30
2023-08-24T10:54:55.005Z,6.65
2023-08-24T10:57:28.739Z,6.43
2023-08-24T11:00:15.446Z,6.20
2023-08-24T11:02:49.762Z,5.90
2023-08-24T11:05:26.052Z,5.97
2023-08-24T11:07:57.842Z,6.88
2023-08-24T11:10:26.699Z,6.80
2023-08-24T11:13:03.906Z,6.63
2023-08-24T11:15:32.515Z,7.03
2023-08-24T11:18:24.820Z,6.80
2023-08-24T11:20:56.396Z,6.35
2023-08-24T11:23:25.085Z,6.43
2023-08-24T11:25:56.224Z,6.17
2023-08-24T11:28:24.386Z,6.40
2023-08-24T11:30:54.475Z,6.68
2023-08-24T11:33:31.521Z,7.28
2023-08-24T11:35:59.402Z,6.57
2023-08-24T11:38:26.954Z,6.37
2023-08-24T11:40:54.463Z,6.97
2023-08-24T11:43:28.307Z,6.43
2023-08-24T11:45:55.777Z,6.35
2023-08-24T11:48:27.596Z,5.78
2023-08-24T11:50:56.274Z,6.40
2023-08-24T11:53:25.559Z,6.20
2023-08-24T11:56:05.664Z,6.70
2023-08-24T11:58:33.801Z,6.93
2023-08-24T12:01:01.769Z,6.60
2023-08-24T12:03:29.397Z,6.97
2023-08-24T12:06:01.214Z,6.10
2023-08-24T12:08:28.649Z,6.63
2023-08-24T12:10:56.581Z,6.32
2023-08-24T12:13:24.049Z,6.50
2023-08-24T12:15:54.105Z,5.90
2023-08-24T12:18:21.580Z,6.40
2023-08-24T12:20:48.982Z,5.80
2023-08-24T12:23:16.365Z,6.68
2023-08-24T12:25:44.256Z,6.18
2023-08-24T12:28:16.384Z,6.20
2023-08-24T12:30:50.916Z,6.70
2023-08-24T12:33:28.838Z,7.07
2023-08-24T12:35:57.021Z,6.20
2023-08-24T12:38:25.182Z,6.18
2023-08-24T12:40:53.517Z,6.40
2023-08-24T12:43:21.103Z,6.03
2023-08-24T12:45:48.893Z,7.15
2023-08-24T12:48:16.661Z,6.47
2023-08-24T12:50:44.249Z,6.18
2023-08-24T12:53:11.664Z,6.67
2023-08-24T12:55:40.509Z,5.90
2023-08-24T12:58:08.280Z,6.65
2023-08-24T13:00:35.862Z,5.93
2023-08-24T13:03:03.443Z,5.75
2023-08-24T13:05:32.670Z,6.23
2023-08-24T13:08:00.784Z,5.75
2023-08-24T13:10:28.823Z,6.35
2023-08-24T13:12:57.731Z,5.90
2023-08-24T13:15:25.446Z,5.93
2023-08-24T13:17:53.378Z,6.20
2023-08-24T13:20:21.323Z,6.45
2023-08-24T13:22:48.640Z,6.40
2023-08-24T13:25:16.401Z,5.90
2023-08-24T13:27:43.958Z,6.10
2023-08-24T13:30:11.615Z,6.10
2023-08-24T13:32:40.242Z,6.40
2023-08-24T13:35:10.270Z,6.20
2023-08-24T13:37:37.915Z,5.95
2023-08-24T13:40:06.088Z,6.72
2023-08-24T13:42:33.492Z,5.93
2023-08-24T13:45:00.847Z,6.63
2023-08-24T13:47:28.328Z,5.85
2023-08-24T13:49:55.763Z,6.25
2023-08-24T13:52:23.378Z,6.80
2023-08-24T13:55:03.240Z,6.53
2023-08-24T13:57:38.249Z,5.90
2023-08-24T14:00:09.105Z,6.03
2023-08-24T14:02:40.164Z,6.40
2023-08-24T14:05:10.510Z,6.25
2023-08-24T14:07:38.313Z,6.00
2023-08-24T14:10:07.851Z,6.00
2023-08-24T14:12:35.554Z,6.10
2023-08-24T14:15:03.302Z,6.25
2023-08-24T14:17:31.238Z,5.72
2023-08-24T14:19:58.853Z,5.97
2023-08-24T14:22:27.136Z,6.05
2023-08-24T14:24:54.611Z,6.43
2023-08-24T14:27:21.997Z,6.00
2023-08-24T14:29:49.431Z,6.10
2023-08-24T14:32:17.123Z,6.13
2023-08-24T14:34:44.708Z,6.03
2023-08-24T14:37:12.285Z,6.40
2023-08-24T14:39:39.717Z,5.90
2023-08-24T14:42:08.138Z,5.68
2023-08-24T14:44:36.350Z,6.17
2023-08-24T14:47:03.974Z,6.00
2023-08-24T14:49:31.643Z,6.10
2023-08-24T14:51:59.326Z,5.43
2023-08-24T14:54:26.915Z,6.38
2023-08-24T14:56:54.615Z,6.10
2023-08-24T14:59:23.655Z,5.95
2023-08-24T15:01:51.222Z,5.75
2023-08-24T15:04:18.613Z,6.07
2023-08-24T15:06:46.166Z,6.03
2023-08-24T15:09:13.488Z,5.80
2023-08-24T15:11:40.888Z,6.05
2023-08-24T15:14:08.457Z,6.05
2023-08-24T15:16:35.941Z,5.93
2023-08-24T15:19:03.536Z,5.85
2023-08-24T15:21:30.882Z,5.53
2023-08-24T15:23:58.356Z,5.85
2023-08-24T15:26:25.927Z,6.18
2023-08-24T15:29:13.049Z,5.78
2023-08-24T15:31:41.081Z,5.25
2023-08-24T15:34:08.873Z,5.60
2023-08-24T15:36:36.353Z,6.10
2023-08-24T15:39:04.536Z,5.78
2023-08-24T15:41:31.987Z,5.65
2023-08-24T15:43:59.425Z,5.93
2023-08-24T15:46:26.987Z,5.50
2023-08-24T15:48:57.091Z,5.90
2023-08-24T15:51:25.024Z,5.88
2023-08-24T15:53:52.425Z,5.80
2023-08-24T15:56:20.187Z,6.13
2023-08-24T15:58:47.953Z,6.43
2023-08-24T16:01:15.416Z,6.07
2023-08-24T16:03:43.476Z,5.93
2023-08-24T16:06:10.969Z,6.43
2023-08-24T16:08:38.304Z,6.72
2023-08-24T16:11:06.198Z,6.17
2023-08-24T16:13:33.719Z,6.53
2023-08-24T16:16:01.141Z,6.38
2023-08-24T16:18:28.440Z,6.25
2023-08-24T16:20:55.987Z,6.40
2023-08-24T16:23:23.527Z,6.33
2023-08-24T16:25:50.949Z,6.65
2023-08-24T16:28:18.522Z,6.13
2023-08-24T16:30:49.691Z,6.90
2023-08-24T16:33:20.397Z,6.70
2023-08-24T16:35:48.609Z,7.00
2023-08-24T16:38:16.542Z,6.25
2023-08-24T16:40:44.198Z,6.95
2023-08-24T16:43:14.663Z,6.32
2023-08-24T16:45:42.254Z,6.35
2023-08-24T16:48:10.044Z,6.77
2023-08-24T16:50:37.428Z,6.40
2023-08-24T16:53:05.064Z,6.60
2023-08-24T16:55:32.568Z,6.68
2023-08-24T16:57:59.976Z,6.68
2023-08-24T17:00:27.465Z,6.43
2023-08-24T17:02:56.780Z,6.43
2023-08-24T17:05:24.589Z,7.15
2023-08-24T17:08:11.290Z,6.68
2023-08-24T17:10:40.594Z,6.03
2023-08-24T17:13:08.279Z,6.50
2023-08-24T17:15:35.860Z,6.85
2023-08-24T17:18:04.101Z,7.13
2023-08-24T17:20:31.507Z,6.78
2023-08-24T17:22:59.020Z,7.28
2023-08-24T17:25:26.528Z,6.60
2023-08-24T17:27:54.273Z,6.82
2023-08-24T17:30:22.100Z,6.97
2023-08-24T17:32:49.472Z,7.32
2023-08-24T17:35:17.208Z,7.60
2023-08-24T17:37:44.555Z,6.83
2023-08-24T17:40:13.658Z,6.93
2023-08-24T17:42:41.311Z,7.22
2023-08-24T17:45:09.815Z,7.65
2023-08-24T17:47:37.490Z,7.00
2023-08-24T17:50:09.798Z,7.20
2023-08-24T17:52:37.314Z,6.93
2023-08-24T17:55:06.370Z,6.85
2023-08-24T17:57:34.396Z,7.35
2023-08-24T18:00:02.920Z,7.57
2023-08-24T18:02:33.756Z,7.13
2023-08-24T18:05:01.347Z,6.65
2023-08-24T18:07:28.864Z,6.97
2023-08-24T18:09:56.668Z,7.25
2023-08-24T18:12:24.714Z,7.10
2023-08-24T18:14:52.142Z,6.77
2023-08-24T18:17:19.664Z,7.00
2023-08-24T18:19:47.381Z,7.35
2023-08-24T18:22:14.788Z,7.70
2023-08-24T18:24:43.936Z,7.60
2023-08-24T18:27:11.509Z,8.03
2023-08-24T18:29:39.290Z,7.57
2023-08-24T18:32:06.984Z,7.78
2023-08-24T18:34:34.892Z,7.88
2023-08-24T18:37:02.323Z,8.05
2023-08-24T18:39:30.479Z,7.87
2023-08-24T18:41:58.330Z,7.78
2023-08-24T18:44:26.018Z,7.70
2023-08-24T18:46:54.388Z,8.45
2023-08-24T18:49:22.121Z,8.50
2023-08-24T18:51:52.254Z,8.50
2023-08-24T18:54:19.910Z,8.15
2023-08-24T18:56:47.497Z,8.40
2023-08-24T18:59:15.026Z,8.75
2023-08-24T19:01:42.578Z,7.93
2023-08-24T19:04:10.212Z,8.27
2023-08-24T19:06:46.648Z,8.25
2023-08-24T19:09:14.862Z,8.48
2023-08-24T19:11:42.266Z,8.18
2023-08-24T19:14:09.749Z,8.20
2023-08-24T19:16:37.375Z,7.70
2023-08-24T19:19:05.050Z,7.97
2023-08-24T19:21:32.599Z,8.07
2023-08-24T19:24:00.052Z,8.45
2023-08-24T19:26:27.560Z,8.15
2023-08-24T19:28:55.116Z,8.50
2023-08-24T19:31:22.620Z,8.00
2023-08-24T19:33:50.292Z,8.52
2023-08-24T19:36:17.806Z,8.85
2023-08-24T19:38:45.395Z,9.77
2023-08-24T19:41:12.797Z,9.03
2023-08-24T19:43:40.236Z,9.55
2023-08-24T19:46:07.895Z,10.20
2023-08-24T19:48:36.842Z,9.40
2023-08-24T19:51:04.127Z,10.32
2023-08-24T19:53:31.582Z,8.63
2023-08-24T19:55:58.961Z,9.25
2023-08-24T19:58:26.578Z,9.90
2023-08-24T20:00:56.950Z,9.27
2023-08-24T20:03:24.765Z,9.70
2023-08-24T20:05:59.098Z,10.23
2023-08-24T20:08:29.635Z,8.90
2023-08-24T20:10:57.822Z,9.05
2023-08-24T20:13:25.238Z,9.85
2023-08-24T20:15:52.593Z,9.93
2023-08-24T20:18:20.091Z,10.03
2023-08-24T20:20:48.286Z,9.38
2023-08-24T20:23:15.589Z,9.18
2023-08-24T20:25:43.184Z,9.60
2023-08-24T20:28:10.660Z,9.77
2023-08-24T20:30:38.152Z,10.07
2023-08-24T20:33:05.643Z,8.95
2023-08-24T20:35:33.396Z,8.90
2023-08-24T20:38:00.765Z,9.25
2023-08-24T20:40:29.138Z,10.15
2023-08-24T20:42:56.607Z,9.90
2023-08-24T20:45:24.127Z,9.73
2023-08-24T20:47:51.928Z,10.20
2023-08-24T20:50:19.643Z,9.43
2023-08-24T20:52:46.950Z,10.07
2023-08-24T20:55:15.419Z,9.90
2023-08-24T20:57:42.957Z,9.82
2023-08-24T21:00:12.538Z,10.07
2023-08-24T21:02:40.159Z,10.18
2023-08-24T21:05:08.403Z,10.38
2023-08-24T21:07:35.717Z,9.97
2023-08-24T21:10:03.287Z,10.60
2023-08-24T21:12:30.741Z,11.13
2023-08-24T21:14:58.340Z,11.50
2023-08-24T21:17:27.392Z,10.82
2023-08-24T21:19:54.948Z,12.63
2023-08-24T21:22:22.308Z,11.68
2023-08-24T21:24:49.915Z,12.57
2023-08-24T21:27:17.454Z,12.35
2023-08-24T21:29:45.488Z,12.80
2023-08-24T21:32:12.970Z,11.80
2023-08-24T21:34:40.573Z,11.82
2023-08-24T21:37:07.919Z,12.57
2023-08-24T21:39:35.360Z,13.25
2023-08-24T21:42:03.089Z,12.13
2023-08-24T21:44:30.653Z,10.07
2023-08-24T21:46:58.049Z,10.52
2023-08-24T21:49:25.777Z,11.43
2023-08-24T21:51:53.165Z,11.75
2023-08-24T21:54:20.600Z,11.75
2023-08-24T21:56:48.058Z,12.70
2023-08-24T21:59:15.517Z,12.63
2023-08-24T22:01:42.952Z,13.63
2023-08-24T22:04:10.719Z,13.60
2023-08-24T22:06:38.215Z,15.93
2023-08-24T22:09:05.831Z,14.13
2023-08-24T22:11:33.100Z,13.52
2023-08-24T22:14:01.007Z,13.82
2023-08-24T22:16:31.627Z,12.88
2023-08-24T22:18:59.089Z,14.82
2023-08-24T22:21:26.890Z,19.57
2023-08-24T22:23:54.532Z,18.25
2023-08-24T22:26:22.495Z,16.63
2023-08-24T22:28:49.885Z,13.38
2023-08-24T22:31:18.041Z,12.00
2023-08-24T22:33:45.416Z,10.77
2023-08-24T22:36:13.396Z,11.55
2023-08-24T22:38:40.931Z,11.40
2023-08-24T22:41:08.358Z,11.63
2023-08-24T22:43:35.925Z,11.18
2023-08-24T22:46:04.470Z,11.17
2023-08-24T22:48:31.961Z,10.93
2023-08-24T22:50:59.453Z,10.73
2023-08-24T22:53:26.952Z,11.80
2023-08-24T22:55:54.381Z,11.13
2023-08-24T22:58:22.032Z,10.93
2023-08-24T23:00:49.392Z,11.35
2023-08-24T23:03:16.846Z,11.15
2023-08-24T23:05:44.218Z,10.60
2023-08-24T23:08:11.848Z,10.68
2023-08-24T23:10:39.632Z,10.50
2023-08-24T23:13:07.808Z,11.05
2023-08-24T23:15:35.446Z,10.73
2023-08-24T23:18:03.192Z,10.20
2023-08-24T23:20:30.694Z,10.15
2023-08-24T23:22:58.034Z,11.50
2023-08-24T23:25:25.526Z,10.90
2023-08-24T23:27:54.474Z,10.77
2023-08-24T23:30:22.184Z,10.98
2023-08-24T23:32:49.875Z,11.75
2023-08-24T23:35:17.384Z,11.20
2023-08-24T23:37:44.953Z,10.88
2023-08-24T23:40:13.823Z,11.35
2023-08-24T23:42:42.144Z,11.15
2023-08-24T23:45:11.357Z,11.10
2023-08-24T23:47:39.452Z,11.33
2023-08-24T23:50:07.322Z,11.20
2023-08-24T23:52:35.040Z,10.32
2023-08-24T23:55:03.821Z,10.55
2023-08-24T23:57:31.315Z,11.10
2023-08-24T23:59:59.182Z,10.23
